EGCC

Manchester Airport

Manchester, United Kingdom
METAR EGCC 240320Z AUTO VRB02KT 9999 NCD 04/03 Q1035 NOSIG
Observed Flight Rules
Sep-24 @ 03:20 UTC (28 minutes ago) Visual Flight Rules
Wind Visibility Clouds
Variable at 2 knots 10,000+ meters
  • Clear skies
Temperatures Readings
Current 4°C / 39°F
Dewpoint 3°C / 37°F
Humidity 93%
Altimeter 30.56" Hg
Pressure 1035 hPa
Elevation 78
METAR EGCC 240320Z AUTO VRB02KT 9999 NCD 04/03 Q1035 NOSIG
Observed Flight Rules
Sep-24 @ 03:20 UTC
(28 minutes ago)
VFR
Wind Visibility
Variable at 2 knots 10,000+ meters
Clouds
  • Clear skies
Temperature Dewpoint
4°C / 39°F 3°C / 37°F
Humidity Altimeter Pressure
93% 30.56" Hg 1035 hPa